sensor_id;sensor_type;location;lat;lon;timestamp;temperature;humidity
16814;DHT22;8524;57.650;11.926;2023-06-22T00:01:50;17.50;99.90
16814;DHT22;8524;57.650;11.926;2023-06-22T00:04:17;17.50;99.90
16814;DHT22;8524;57.650;11.926;2023-06-22T00:06:44;17.50;99.90
16814;DHT22;8524;57.650;11.926;2023-06-22T00:09:11;17.40;99.90
16814;DHT22;8524;57.650;11.926;2023-06-22T00:11:38;17.40;99.90
16814;DHT22;8524;57.650;11.926;2023-06-22T00:14:07;17.40;99.90
16814;DHT22;8524;57.650;11.926;2023-06-22T00:16:34;17.50;99.90
16814;DHT22;8524;57.650;11.926;2023-06-22T00:19:01;17.50;99.90
16814;DHT22;8524;57.650;11.926;2023-06-22T00:21:29;17.40;99.90
16814;DHT22;8524;57.650;11.926;2023-06-22T00:23:56;17.40;99.90
16814;DHT22;8524;57.650;11.926;2023-06-22T00:26:23;17.40;99.90
16814;DHT22;8524;57.650;11.926;2023-06-22T00:28:50;17.40;99.90
16814;DHT22;8524;57.650;11.926;2023-06-22T00:31:19;17.30;99.90
16814;DHT22;8524;57.650;11.926;2023-06-22T00:33:46;17.40;99.90
16814;DHT22;8524;57.650;11.926;2023-06-22T00:36:13;17.30;99.90
16814;DHT22;8524;57.650;11.926;2023-06-22T00:38:41;17.30;99.90
16814;DHT22;8524;57.650;11.926;2023-06-22T00:41:08;17.30;99.90
16814;DHT22;8524;57.650;11.926;2023-06-22T00:43:35;17.30;99.90
16814;DHT22;8524;57.650;11.926;2023-06-22T00:46:02;17.30;99.90
16814;DHT22;8524;57.650;11.926;2023-06-22T00:48:31;17.20;99.90
16814;DHT22;8524;57.650;11.926;2023-06-22T00:50:58;17.30;99.90
16814;DHT22;8524;57.650;11.926;2023-06-22T00:53:25;17.20;99.90
16814;DHT22;8524;57.650;11.926;2023-06-22T00:55:52;17.20;99.90
16814;DHT22;8524;57.650;11.926;2023-06-22T00:58:20;17.10;99.90
16814;DHT22;8524;57.650;11.926;2023-06-22T01:00:48;17.00;99.90
16814;DHT22;8524;57.650;11.926;2023-06-22T01:03:15;17.00;99.90
16814;DHT22;8524;57.650;11.926;2023-06-22T01:05:44;17.00;99.90
16814;DHT22;8524;57.650;11.926;2023-06-22T01:08:20;16.90;99.90
16814;DHT22;8524;57.650;11.926;2023-06-22T01:10:52;16.90;99.90
16814;DHT22;8524;57.650;11.926;2023-06-22T01:13:28;16.90;99.90
16814;DHT22;8524;57.650;11.926;2023-06-22T01:16:00;16.90;99.90
16814;DHT22;8524;57.650;11.926;2023-06-22T01:18:29;16.90;99.90
16814;DHT22;8524;57.650;11.926;2023-06-22T01:21:00;16.80;99.90
16814;DHT22;8524;57.650;11.926;2023-06-22T01:23:41;16.80;99.90
16814;DHT22;8524;57.650;11.926;2023-06-22T01:26:17;16.80;99.90
16814;DHT22;8524;57.650;11.926;2023-06-22T01:28:48;16.80;99.90
16814;DHT22;8524;57.650;11.926;2023-06-22T01:31:18;16.80;99.90
16814;DHT22;8524;57.650;11.926;2023-06-22T01:33:50;16.80;99.90
16814;DHT22;8524;57.650;11.926;2023-06-22T01:36:18;16.90;99.90
16814;DHT22;8524;57.650;11.926;2023-06-22T01:38:47;16.90;99.90
16814;DHT22;8524;57.650;11.926;2023-06-22T01:41:15;16.90;99.90
16814;DHT22;8524;57.650;11.926;2023-06-22T01:43:43;16.90;99.90
16814;DHT22;8524;57.650;11.926;2023-06-22T01:46:12;16.80;99.90
16814;DHT22;8524;57.650;11.926;2023-06-22T01:48:39;16.80;99.90
16814;DHT22;8524;57.650;11.926;2023-06-22T01:51:06;16.90;99.90
16814;DHT22;8524;57.650;11.926;2023-06-22T01:53:34;16.90;99.90
16814;DHT22;8524;57.650;11.926;2023-06-22T01:56:01;16.90;99.90
16814;DHT22;8524;57.650;11.926;2023-06-22T01:58:30;16.90;99.90
16814;DHT22;8524;57.650;11.926;2023-06-22T02:01:07;17.00;99.90
16814;DHT22;8524;57.650;11.926;2023-06-22T02:03:41;17.00;99.90
16814;DHT22;8524;57.650;11.926;2023-06-22T02:06:13;17.00;99.90
16814;DHT22;8524;57.650;11.926;2023-06-22T02:08:46;17.00;99.90
16814;DHT22;8524;57.650;11.926;2023-06-22T02:11:15;17.00;99.90
16814;DHT22;8524;57.650;11.926;2023-06-22T02:13:44;16.90;99.90
16814;DHT22;8524;57.650;11.926;2023-06-22T02:16:13;17.00;99.90
16814;DHT22;8524;57.650;11.926;2023-06-22T02:18:47;17.00;99.90
16814;DHT22;8524;57.650;11.926;2023-06-22T02:21:16;17.00;99.90
16814;DHT22;8524;57.650;11.926;2023-06-22T02:23:43;17.00;99.90
16814;DHT22;8524;57.650;11.926;2023-06-22T02:26:10;17.00;99.90
16814;DHT22;8524;57.650;11.926;2023-06-22T02:28:37;17.00;99.90
16814;DHT22;8524;57.650;11.926;2023-06-22T02:31:04;17.00;99.90
16814;DHT22;8524;57.650;11.926;2023-06-22T02:33:31;17.00;99.90
16814;DHT22;8524;57.650;11.926;2023-06-22T02:36:00;17.00;99.90
16814;DHT22;8524;57.650;11.926;2023-06-22T02:38:30;17.00;99.90
16814;DHT22;8524;57.650;11.926;2023-06-22T02:41:00;17.00;99.90
16814;DHT22;8524;57.650;11.926;2023-06-22T02:43:27;17.00;99.90
16814;DHT22;8524;57.650;11.926;2023-06-22T02:45:55;17.00;99.90
16814;DHT22;8524;57.650;11.926;2023-06-22T02:48:22;17.00;99.90
16814;DHT22;8524;57.650;11.926;2023-06-22T02:50:49;17.00;99.90
16814;DHT22;8524;57.650;11.926;2023-06-22T02:53:17;17.00;99.90
16814;DHT22;8524;57.650;11.926;2023-06-22T02:55:45;17.00;99.90
16814;DHT22;8524;57.650;11.926;2023-06-22T02:58:12;17.10;99.90
16814;DHT22;8524;57.650;11.926;2023-06-22T03:00:39;17.00;99.90
16814;DHT22;8524;57.650;11.926;2023-06-22T03:03:06;17.10;99.90
16814;DHT22;8524;57.650;11.926;2023-06-22T03:05:33;17.10;99.90
16814;DHT22;8524;57.650;11.926;2023-06-22T03:08:00;17.10;99.90
16814;DHT22;8524;57.650;11.926;2023-06-22T03:10:29;17.10;99.90
16814;DHT22;8524;57.650;11.926;2023-06-22T03:12:56;17.10;99.90
16814;DHT22;8524;57.650;11.926;2023-06-22T03:15:23;17.10;99.90
16814;DHT22;8524;57.650;11.926;2023-06-22T03:17:51;17.10;99.90
16814;DHT22;8524;57.650;11.926;2023-06-22T03:20:18;17.10;99.90
16814;DHT22;8524;57.650;11.926;2023-06-22T03:22:45;17.00;99.90
16814;DHT22;8524;57.650;11.926;2023-06-22T03:25:12;17.00;99.90
16814;DHT22;8524;57.650;11.926;2023-06-22T03:27:41;17.10;99.90
16814;DHT22;8524;57.650;11.926;2023-06-22T03:30:09;17.00;99.90
16814;DHT22;8524;57.650;11.926;2023-06-22T03:32:36;17.00;99.90
16814;DHT22;8524;57.650;11.926;2023-06-22T03:35:04;17.00;99.90
16814;DHT22;8524;57.650;11.926;2023-06-22T03:37:31;17.00;99.90
16814;DHT22;8524;57.650;11.926;2023-06-22T03:39:59;17.00;99.90
16814;DHT22;8524;57.650;11.926;2023-06-22T03:42:26;17.10;99.90
16814;DHT22;8524;57.650;11.926;2023-06-22T03:44:55;17.10;99.90
16814;DHT22;8524;57.650;11.926;2023-06-22T03:47:22;17.10;99.90
16814;DHT22;8524;57.650;11.926;2023-06-22T03:49:49;17.10;99.90
16814;DHT22;8524;57.650;11.926;2023-06-22T03:52:20;17.10;99.90
16814;DHT22;8524;57.650;11.926;2023-06-22T03:54:48;17.10;99.90
16814;DHT22;8524;57.650;11.926;2023-06-22T03:57:15;17.20;99.90
16814;DHT22;8524;57.650;11.926;2023-06-22T03:59:42;17.10;99.90
16814;DHT22;8524;57.650;11.926;2023-06-22T04:02:10;17.10;99.90
16814;DHT22;8524;57.650;11.926;2023-06-22T04:04:37;17.20;99.90
16814;DHT22;8524;57.650;11.926;2023-06-22T04:07:04;17.20;99.90
16814;DHT22;8524;57.650;11.926;2023-06-22T04:09:32;17.20;99.90
16814;DHT22;8524;57.650;11.926;2023-06-22T04:11:58;17.30;99.90
16814;DHT22;8524;57.650;11.926;2023-06-22T04:14:25;17.30;99.90
16814;DHT22;8524;57.650;11.926;2023-06-22T04:16:53;17.30;99.90
16814;DHT22;8524;57.650;11.926;2023-06-22T04:19:21;17.30;99.90
16814;DHT22;8524;57.650;11.926;2023-06-22T04:21:48;17.30;99.90
16814;DHT22;8524;57.650;11.926;2023-06-22T04:24:15;17.30;99.90
16814;DHT22;8524;57.650;11.926;2023-06-22T04:26:42;17.30;99.90
16814;DHT22;8524;57.650;11.926;2023-06-22T04:29:11;17.40;99.90
16814;DHT22;8524;57.650;11.926;2023-06-22T04:31:38;17.40;99.90
16814;DHT22;8524;57.650;11.926;2023-06-22T04:34:06;17.40;99.90
16814;DHT22;8524;57.650;11.926;2023-06-22T04:36:39;17.40;99.90
16814;DHT22;8524;57.650;11.926;2023-06-22T04:39:07;17.40;99.90
16814;DHT22;8524;57.650;11.926;2023-06-22T04:41:35;17.40;99.90
16814;DHT22;8524;57.650;11.926;2023-06-22T04:44:11;17.50;99.90
16814;DHT22;8524;57.650;11.926;2023-06-22T04:46:38;17.50;99.90
16814;DHT22;8524;57.650;11.926;2023-06-22T04:49:06;17.60;99.90
16814;DHT22;8524;57.650;11.926;2023-06-22T04:51:41;17.60;99.90
16814;DHT22;8524;57.650;11.926;2023-06-22T04:54:09;17.60;99.90
16814;DHT22;8524;57.650;11.926;2023-06-22T04:56:36;17.70;99.90
16814;DHT22;8524;57.650;11.926;2023-06-22T04:59:03;17.70;99.90
16814;DHT22;8524;57.650;11.926;2023-06-22T05:01:30;17.80;99.90
16814;DHT22;8524;57.650;11.926;2023-06-22T05:03:57;17.80;99.90
16814;DHT22;8524;57.650;11.926;2023-06-22T05:06:27;17.80;99.90
16814;DHT22;8524;57.650;11.926;2023-06-22T05:08:56;17.80;99.90
16814;DHT22;8524;57.650;11.926;2023-06-22T05:11:24;17.80;99.90
16814;DHT22;8524;57.650;11.926;2023-06-22T05:13:52;17.80;99.90
16814;DHT22;8524;57.650;11.926;2023-06-22T05:16:19;17.90;99.90
16814;DHT22;8524;57.650;11.926;2023-06-22T05:18:50;17.90;99.90
16814;DHT22;8524;57.650;11.926;2023-06-22T05:21:17;18.00;99.90
16814;DHT22;8524;57.650;11.926;2023-06-22T05:23:44;18.00;99.90
16814;DHT22;8524;57.650;11.926;2023-06-22T05:26:13;18.10;99.90
16814;DHT22;8524;57.650;11.926;2023-06-22T05:28:40;18.20;99.90
16814;DHT22;8524;57.650;11.926;2023-06-22T05:31:07;18.20;99.90
16814;DHT22;8524;57.650;11.926;2023-06-22T05:33:34;18.30;99.90
16814;DHT22;8524;57.650;11.926;2023-06-22T05:36:01;18.30;99.90
16814;DHT22;8524;57.650;11.926;2023-06-22T05:38:28;18.30;99.90
16814;DHT22;8524;57.650;11.926;2023-06-22T05:40:55;18.50;99.90
16814;DHT22;8524;57.650;11.926;2023-06-22T05:43:23;18.50;99.90
16814;DHT22;8524;57.650;11.926;2023-06-22T05:45:50;18.50;99.90
16814;DHT22;8524;57.650;11.926;2023-06-22T05:48:17;18.50;99.90
16814;DHT22;8524;57.650;11.926;2023-06-22T05:50:45;18.60;99.90
16814;DHT22;8524;57.650;11.926;2023-06-22T05:53:12;18.60;99.90
16814;DHT22;8524;57.650;11.926;2023-06-22T05:55:39;18.60;99.90
16814;DHT22;8524;57.650;11.926;2023-06-22T05:58:06;18.50;99.90
16814;DHT22;8524;57.650;11.926;2023-06-22T06:00:35;18.60;99.90
16814;DHT22;8524;57.650;11.926;2023-06-22T06:03:03;18.70;99.90
16814;DHT22;8524;57.650;11.926;2023-06-22T06:05:30;18.80;99.90
16814;DHT22;8524;57.650;11.926;2023-06-22T06:07:58;18.80;99.90
16814;DHT22;8524;57.650;11.926;2023-06-22T06:10:25;18.90;99.90
16814;DHT22;8524;57.650;11.926;2023-06-22T06:12:52;18.90;99.90
16814;DHT22;8524;57.650;11.926;2023-06-22T06:15:19;19.00;99.90
16814;DHT22;8524;57.650;11.926;2023-06-22T06:17:48;19.00;99.90
16814;DHT22;8524;57.650;11.926;2023-06-22T06:20:15;19.10;99.90
16814;DHT22;8524;57.650;11.926;2023-06-22T06:22:42;19.10;99.90
16814;DHT22;8524;57.650;11.926;2023-06-22T06:25:10;19.20;99.90
16814;DHT22;8524;57.650;11.926;2023-06-22T06:27:42;19.20;99.90
16814;DHT22;8524;57.650;11.926;2023-06-22T06:30:10;19.40;99.90
16814;DHT22;8524;57.650;11.926;2023-06-22T06:32:38;19.50;99.90
16814;DHT22;8524;57.650;11.926;2023-06-22T06:35:08;19.60;99.90
16814;DHT22;8524;57.650;11.926;2023-06-22T06:37:37;19.80;99.90
16814;DHT22;8524;57.650;11.926;2023-06-22T06:40:06;20.20;99.90
16814;DHT22;8524;57.650;11.926;2023-06-22T06:42:34;20.60;99.90
16814;DHT22;8524;57.650;11.926;2023-06-22T06:45:03;20.50;99.90
16814;DHT22;8524;57.650;11.926;2023-06-22T06:47:30;20.70;99.90
16814;DHT22;8524;57.650;11.926;2023-06-22T06:49:58;20.60;99.90
16814;DHT22;8524;57.650;11.926;2023-06-22T06:52:27;20.50;99.90
16814;DHT22;8524;57.650;11.926;2023-06-22T06:54:54;20.40;99.90
16814;DHT22;8524;57.650;11.926;2023-06-22T06:57:21;20.60;99.90
16814;DHT22;8524;57.650;11.926;2023-06-22T06:59:48;20.70;99.90
16814;DHT22;8524;57.650;11.926;2023-06-22T07:02:15;20.70;99.90
16814;DHT22;8524;57.650;11.926;2023-06-22T07:04:42;20.50;99.90
16814;DHT22;8524;57.650;11.926;2023-06-22T07:07:10;20.60;99.90
16814;DHT22;8524;57.650;11.926;2023-06-22T07:09:38;20.40;99.90
16814;DHT22;8524;57.650;11.926;2023-06-22T07:12:06;20.50;99.90
16814;DHT22;8524;57.650;11.926;2023-06-22T07:14:33;20.60;99.90
16814;DHT22;8524;57.650;11.926;2023-06-22T07:17:00;20.60;99.90
16814;DHT22;8524;57.650;11.926;2023-06-22T07:19:28;20.60;99.90
16814;DHT22;8524;57.650;11.926;2023-06-22T07:21:55;20.50;99.90
16814;DHT22;8524;57.650;11.926;2023-06-22T07:24:22;20.60;99.90
16814;DHT22;8524;57.650;11.926;2023-06-22T07:26:51;21.00;99.90
16814;DHT22;8524;57.650;11.926;2023-06-22T07:29:18;21.60;99.90
16814;DHT22;8524;57.650;11.926;2023-06-22T07:31:46;22.00;99.90
16814;DHT22;8524;57.650;11.926;2023-06-22T07:34:15;22.10;99.90
16814;DHT22;8524;57.650;11.926;2023-06-22T07:36:42;22.10;99.90
16814;DHT22;8524;57.650;11.926;2023-06-22T07:39:09;22.00;99.90
16814;DHT22;8524;57.650;11.926;2023-06-22T07:41:39;22.00;99.90
16814;DHT22;8524;57.650;11.926;2023-06-22T07:44:08;22.10;99.90
16814;DHT22;8524;57.650;11.926;2023-06-22T07:46:35;21.90;99.90
16814;DHT22;8524;57.650;11.926;2023-06-22T07:49:02;22.00;99.90
16814;DHT22;8524;57.650;11.926;2023-06-22T07:51:29;21.80;99.90
16814;DHT22;8524;57.650;11.926;2023-06-22T07:53:56;21.70;99.90
16814;DHT22;8524;57.650;11.926;2023-06-22T07:56:23;22.00;99.90
16814;DHT22;8524;57.650;11.926;2023-06-22T07:58:50;22.00;99.90
16814;DHT22;8524;57.650;11.926;2023-06-22T08:01:20;22.30;99.90
16814;DHT22;8524;57.650;11.926;2023-06-22T08:03:48;22.40;99.90
16814;DHT22;8524;57.650;11.926;2023-06-22T08:06:16;22.10;99.90
16814;DHT22;8524;57.650;11.926;2023-06-22T08:08:43;21.80;99.90
16814;DHT22;8524;57.650;11.926;2023-06-22T08:11:13;22.00;99.90
16814;DHT22;8524;57.650;11.926;2023-06-22T08:13:40;22.60;99.90
16814;DHT22;8524;57.650;11.926;2023-06-22T08:16:07;22.50;99.90
16814;DHT22;8524;57.650;11.926;2023-06-22T08:18:36;22.30;99.90
16814;DHT22;8524;57.650;11.926;2023-06-22T08:21:03;22.30;99.90
16814;DHT22;8524;57.650;11.926;2023-06-22T08:23:30;22.50;99.90
16814;DHT22;8524;57.650;11.926;2023-06-22T08:25:57;22.50;99.90
16814;DHT22;8524;57.650;11.926;2023-06-22T08:28:24;22.50;99.90
16814;DHT22;8524;57.650;11.926;2023-06-22T08:30:51;22.60;99.90
16814;DHT22;8524;57.650;11.926;2023-06-22T08:33:18;22.40;99.90
16814;DHT22;8524;57.650;11.926;2023-06-22T08:35:47;22.20;99.90
16814;DHT22;8524;57.650;11.926;2023-06-22T08:38:17;22.30;99.90
16814;DHT22;8524;57.650;11.926;2023-06-22T08:40:44;22.10;99.90
16814;DHT22;8524;57.650;11.926;2023-06-22T08:43:11;22.30;99.90
16814;DHT22;8524;57.650;11.926;2023-06-22T08:45:38;22.30;99.90
16814;DHT22;8524;57.650;11.926;2023-06-22T08:48:05;22.10;99.90
16814;DHT22;8524;57.650;11.926;2023-06-22T08:50:32;22.20;99.90
16814;DHT22;8524;57.650;11.926;2023-06-22T08:53:01;22.30;99.90
16814;DHT22;8524;57.650;11.926;2023-06-22T08:55:28;22.20;99.90
16814;DHT22;8524;57.650;11.926;2023-06-22T08:57:55;22.30;99.90
16814;DHT22;8524;57.650;11.926;2023-06-22T09:00:22;22.40;99.90
16814;DHT22;8524;57.650;11.926;2023-06-22T09:02:49;22.50;99.90
16814;DHT22;8524;57.650;11.926;2023-06-22T09:05:16;22.80;99.90
16814;DHT22;8524;57.650;11.926;2023-06-22T09:07:43;23.00;99.90
16814;DHT22;8524;57.650;11.926;2023-06-22T09:10:12;23.50;99.90
16814;DHT22;8524;57.650;11.926;2023-06-22T09:12:39;23.80;99.90
16814;DHT22;8524;57.650;11.926;2023-06-22T09:15:07;23.90;99.90
16814;DHT22;8524;57.650;11.926;2023-06-22T09:17:34;24.20;99.90
16814;DHT22;8524;57.650;11.926;2023-06-22T09:20:03;24.40;99.90
16814;DHT22;8524;57.650;11.926;2023-06-22T09:22:31;24.40;99.90
16814;DHT22;8524;57.650;11.926;2023-06-22T09:24:58;24.20;99.90
16814;DHT22;8524;57.650;11.926;2023-06-22T09:27:28;23.80;99.90
16814;DHT22;8524;57.650;11.926;2023-06-22T09:29:55;23.70;99.90
16814;DHT22;8524;57.650;11.926;2023-06-22T09:32:24;23.70;99.90
16814;DHT22;8524;57.650;11.926;2023-06-22T09:34:52;23.80;99.90
16814;DHT22;8524;57.650;11.926;2023-06-22T09:37:19;23.60;99.90
16814;DHT22;8524;57.650;11.926;2023-06-22T09:39:46;23.30;99.90
16814;DHT22;8524;57.650;11.926;2023-06-22T09:42:13;22.90;99.90
16814;DHT22;8524;57.650;11.926;2023-06-22T09:44:42;23.20;99.90
16814;DHT22;8524;57.650;11.926;2023-06-22T09:47:09;23.00;99.90
16814;DHT22;8524;57.650;11.926;2023-06-22T09:49:36;22.80;99.90
16814;DHT22;8524;57.650;11.926;2023-06-22T09:52:03;22.80;99.90
16814;DHT22;8524;57.650;11.926;2023-06-22T09:54:30;22.90;99.90
16814;DHT22;8524;57.650;11.926;2023-06-22T09:56:57;23.10;99.90
16814;DHT22;8524;57.650;11.926;2023-06-22T09:59:24;23.10;99.90
16814;DHT22;8524;57.650;11.926;2023-06-22T10:01:53;23.20;99.90
16814;DHT22;8524;57.650;11.926;2023-06-22T10:04:20;23.40;99.90
16814;DHT22;8524;57.650;11.926;2023-06-22T10:06:47;23.30;99.90
16814;DHT22;8524;57.650;11.926;2023-06-22T10:09:14;23.30;99.90
16814;DHT22;8524;57.650;11.926;2023-06-22T10:11:40;23.50;99.90
16814;DHT22;8524;57.650;11.926;2023-06-22T10:14:07;23.50;99.90
16814;DHT22;8524;57.650;11.926;2023-06-22T10:16:36;23.50;99.90
16814;DHT22;8524;57.650;11.926;2023-06-22T10:19:05;23.60;99.90
16814;DHT22;8524;57.650;11.926;2023-06-22T10:21:32;23.50;99.90
16814;DHT22;8524;57.650;11.926;2023-06-22T10:24:00;23.00;99.90
16814;DHT22;8524;57.650;11.926;2023-06-22T10:26:31;23.00;99.90
16814;DHT22;8524;57.650;11.926;2023-06-22T10:28:58;23.10;99.90
16814;DHT22;8524;57.650;11.926;2023-06-22T10:31:26;22.90;99.90
16814;DHT22;8524;57.650;11.926;2023-06-22T10:33:53;23.10;99.90
16814;DHT22;8524;57.650;11.926;2023-06-22T10:36:22;23.40;99.90
16814;DHT22;8524;57.650;11.926;2023-06-22T10:38:49;23.80;99.90
16814;DHT22;8524;57.650;11.926;2023-06-22T10:41:16;24.00;99.90
16814;DHT22;8524;57.650;11.926;2023-06-22T10:43:43;24.10;99.90
16814;DHT22;8524;57.650;11.926;2023-06-22T10:46:10;24.40;99.90
16814;DHT22;8524;57.650;11.926;2023-06-22T10:48:37;24.40;99.90
16814;DHT22;8524;57.650;11.926;2023-06-22T10:51:04;24.50;99.90
16814;DHT22;8524;57.650;11.926;2023-06-22T10:53:33;24.70;99.90
16814;DHT22;8524;57.650;11.926;2023-06-22T10:56:00;24.80;99.90
16814;DHT22;8524;57.650;11.926;2023-06-22T10:58:27;24.80;99.90
16814;DHT22;8524;57.650;11.926;2023-06-22T11:00:53;24.80;99.90
16814;DHT22;8524;57.650;11.926;2023-06-22T11:03:20;24.80;99.90
16814;DHT22;8524;57.650;11.926;2023-06-22T11:05:49;24.80;99.90
16814;DHT22;8524;57.650;11.926;2023-06-22T11:08:16;24.90;99.90
16814;DHT22;8524;57.650;11.926;2023-06-22T11:10:44;24.90;99.90
16814;DHT22;8524;57.650;11.926;2023-06-22T11:13:11;25.30;99.90
16814;DHT22;8524;57.650;11.926;2023-06-22T11:15:39;25.50;99.90
16814;DHT22;8524;57.650;11.926;2023-06-22T11:18:06;25.70;99.90
16814;DHT22;8524;57.650;11.926;2023-06-22T11:20:34;25.70;99.90
16814;DHT22;8524;57.650;11.926;2023-06-22T11:23:04;25.50;99.90
16814;DHT22;8524;57.650;11.926;2023-06-22T11:25:32;25.60;99.90
16814;DHT22;8524;57.650;11.926;2023-06-22T11:28:02;25.50;99.90
16814;DHT22;8524;57.650;11.926;2023-06-22T11:30:29;25.40;99.90
16814;DHT22;8524;57.650;11.926;2023-06-22T11:32:57;25.10;99.90
16814;DHT22;8524;57.650;11.926;2023-06-22T11:35:24;25.50;99.90
16814;DHT22;8524;57.650;11.926;2023-06-22T11:37:55;25.60;99.90
16814;DHT22;8524;57.650;11.926;2023-06-22T11:40:23;25.70;99.90
16814;DHT22;8524;57.650;11.926;2023-06-22T11:42:50;25.60;99.90
16814;DHT22;8524;57.650;11.926;2023-06-22T11:45:19;25.50;99.90
16814;DHT22;8524;57.650;11.926;2023-06-22T11:47:46;25.30;99.90
16814;DHT22;8524;57.650;11.926;2023-06-22T11:50:13;25.30;99.90
16814;DHT22;8524;57.650;11.926;2023-06-22T11:52:40;25.70;99.90
16814;DHT22;8524;57.650;11.926;2023-06-22T11:55:08;26.00;99.90
16814;DHT22;8524;57.650;11.926;2023-06-22T11:57:36;26.20;99.90
16814;DHT22;8524;57.650;11.926;2023-06-22T12:00:07;26.10;99.90
16814;DHT22;8524;57.650;11.926;2023-06-22T12:02:43;25.80;99.90
16814;DHT22;8524;57.650;11.926;2023-06-22T12:05:10;26.00;99.90
16814;DHT22;8524;57.650;11.926;2023-06-22T12:07:38;26.30;99.90
16814;DHT22;8524;57.650;11.926;2023-06-22T12:10:05;26.10;99.90
16814;DHT22;8524;57.650;11.926;2023-06-22T12:12:33;26.20;99.90
16814;DHT22;8524;57.650;11.926;2023-06-22T12:14:59;26.10;99.90
16814;DHT22;8524;57.650;11.926;2023-06-22T12:17:29;26.50;99.90
16814;DHT22;8524;57.650;11.926;2023-06-22T12:19:58;26.60;99.90
16814;DHT22;8524;57.650;11.926;2023-06-22T12:22:25;26.60;99.90
16814;DHT22;8524;57.650;11.926;2023-06-22T12:24:52;26.40;99.90
16814;DHT22;8524;57.650;11.926;2023-06-22T12:27:19;26.40;99.90
16814;DHT22;8524;57.650;11.926;2023-06-22T12:29:46;26.30;99.90
16814;DHT22;8524;57.650;11.926;2023-06-22T12:32:14;26.20;99.90
16814;DHT22;8524;57.650;11.926;2023-06-22T12:34:42;26.30;99.90
16814;DHT22;8524;57.650;11.926;2023-06-22T12:37:14;26.50;99.90
16814;DHT22;8524;57.650;11.926;2023-06-22T12:39:41;26.40;99.90
16814;DHT22;8524;57.650;11.926;2023-06-22T12:42:09;26.70;99.90
16814;DHT22;8524;57.650;11.926;2023-06-22T12:44:38;26.20;99.90
16814;DHT22;8524;57.650;11.926;2023-06-22T12:47:06;26.00;99.90
16814;DHT22;8524;57.650;11.926;2023-06-22T12:49:34;26.20;99.90
16814;DHT22;8524;57.650;11.926;2023-06-22T12:52:01;25.90;99.90
16814;DHT22;8524;57.650;11.926;2023-06-22T12:54:29;25.70;99.90
16814;DHT22;8524;57.650;11.926;2023-06-22T12:56:56;25.80;99.90
16814;DHT22;8524;57.650;11.926;2023-06-22T12:59:23;25.70;99.90
16814;DHT22;8524;57.650;11.926;2023-06-22T13:01:50;25.60;99.90
16814;DHT22;8524;57.650;11.926;2023-06-22T13:04:17;25.50;99.90
16814;DHT22;8524;57.650;11.926;2023-06-22T13:06:45;25.70;99.90
16814;DHT22;8524;57.650;11.926;2023-06-22T13:09:14;25.70;99.90
16814;DHT22;8524;57.650;11.926;2023-06-22T13:11:42;25.60;99.90
16814;DHT22;8524;57.650;11.926;2023-06-22T13:14:10;25.70;99.90
16814;DHT22;8524;57.650;11.926;2023-06-22T13:16:37;25.80;99.90
16814;DHT22;8524;57.650;11.926;2023-06-22T13:19:04;25.60;99.90
16814;DHT22;8524;57.650;11.926;2023-06-22T13:21:31;25.40;99.90
16814;DHT22;8524;57.650;11.926;2023-06-22T13:23:59;25.40;99.90
16814;DHT22;8524;57.650;11.926;2023-06-22T13:26:26;25.10;99.90
16814;DHT22;8524;57.650;11.926;2023-06-22T13:28:56;25.30;99.90
16814;DHT22;8524;57.650;11.926;2023-06-22T13:31:23;25.20;99.90
16814;DHT22;8524;57.650;11.926;2023-06-22T13:33:50;24.90;99.90
16814;DHT22;8524;57.650;11.926;2023-06-22T13:36:18;24.80;99.90
16814;DHT22;8524;57.650;11.926;2023-06-22T13:38:45;25.10;99.90
16814;DHT22;8524;57.650;11.926;2023-06-22T13:41:12;25.10;99.90
16814;DHT22;8524;57.650;11.926;2023-06-22T13:43:39;25.20;99.90
16814;DHT22;8524;57.650;11.926;2023-06-22T13:46:08;25.50;99.90
16814;DHT22;8524;57.650;11.926;2023-06-22T13:48:35;25.60;99.90
16814;DHT22;8524;57.650;11.926;2023-06-22T13:51:02;25.70;99.90
16814;DHT22;8524;57.650;11.926;2023-06-22T13:53:29;26.00;99.90
16814;DHT22;8524;57.650;11.926;2023-06-22T13:55:56;26.20;99.90
16814;DHT22;8524;57.650;11.926;2023-06-22T13:58:23;26.30;99.90
16814;DHT22;8524;57.650;11.926;2023-06-22T14:00:50;26.70;99.90
16814;DHT22;8524;57.650;11.926;2023-06-22T14:03:19;26.30;99.90
16814;DHT22;8524;57.650;11.926;2023-06-22T14:05:46;26.40;99.90
16814;DHT22;8524;57.650;11.926;2023-06-22T14:08:13;26.20;99.90
16814;DHT22;8524;57.650;11.926;2023-06-22T14:10:40;26.20;99.90
16814;DHT22;8524;57.650;11.926;2023-06-22T14:13:07;26.10;99.90
16814;DHT22;8524;57.650;11.926;2023-06-22T14:15:34;26.20;99.90
16814;DHT22;8524;57.650;11.926;2023-06-22T14:18:01;25.80;99.90
16814;DHT22;8524;57.650;11.926;2023-06-22T14:20:30;25.40;99.90
16814;DHT22;8524;57.650;11.926;2023-06-22T14:22:57;25.50;99.90
16814;DHT22;8524;57.650;11.926;2023-06-22T14:25:23;25.30;99.90
16814;DHT22;8524;57.650;11.926;2023-06-22T14:27:50;25.50;99.90
16814;DHT22;8524;57.650;11.926;2023-06-22T14:30:17;25.70;99.90
16814;DHT22;8524;57.650;11.926;2023-06-22T14:32:44;25.70;99.90
16814;DHT22;8524;57.650;11.926;2023-06-22T14:35:11;25.80;99.90
16814;DHT22;8524;57.650;11.926;2023-06-22T14:37:40;25.90;99.90
16814;DHT22;8524;57.650;11.926;2023-06-22T14:40:07;25.80;99.90
16814;DHT22;8524;57.650;11.926;2023-06-22T14:42:35;25.30;99.90
16814;DHT22;8524;57.650;11.926;2023-06-22T14:45:02;25.60;99.90
16814;DHT22;8524;57.650;11.926;2023-06-22T14:47:29;25.70;99.90
16814;DHT22;8524;57.650;11.926;2023-06-22T14:49:56;25.70;99.90
16814;DHT22;8524;57.650;11.926;2023-06-22T14:52:23;25.80;99.90
16814;DHT22;8524;57.650;11.926;2023-06-22T14:54:52;25.70;99.90
16814;DHT22;8524;57.650;11.926;2023-06-22T14:57:19;25.70;99.90
16814;DHT22;8524;57.650;11.926;2023-06-22T14:59:48;25.80;99.90
16814;DHT22;8524;57.650;11.926;2023-06-22T15:02:16;25.80;99.90
16814;DHT22;8524;57.650;11.926;2023-06-22T15:04:43;25.90;99.90
16814;DHT22;8524;57.650;11.926;2023-06-22T15:07:10;25.80;99.90
16814;DHT22;8524;57.650;11.926;2023-06-22T15:09:37;25.80;99.90
16814;DHT22;8524;57.650;11.926;2023-06-22T15:12:09;25.70;99.90
16814;DHT22;8524;57.650;11.926;2023-06-22T15:14:37;25.50;99.90
16814;DHT22;8524;57.650;11.926;2023-06-22T15:17:05;25.40;99.90
16814;DHT22;8524;57.650;11.926;2023-06-22T15:19:34;25.00;99.90
16814;DHT22;8524;57.650;11.926;2023-06-22T15:22:02;25.10;99.90
16814;DHT22;8524;57.650;11.926;2023-06-22T15:24:29;25.10;99.90
16814;DHT22;8524;57.650;11.926;2023-06-22T15:26:56;24.60;99.90
16814;DHT22;8524;57.650;11.926;2023-06-22T15:29:25;24.10;99.90
16814;DHT22;8524;57.650;11.926;2023-06-22T15:31:52;23.70;99.90
16814;DHT22;8524;57.650;11.926;2023-06-22T15:34:19;23.40;99.90